Time;durP1;ratioP1;P1;durP2;ratioP2;P2;SDS_P1;SDS_P2;PMS_P1;PMS_P2;Temp;Humidity;BMP_temperature;BMP_pressure;BME280_temperature;BME280_humidity;BME280_pressure;Samples;Min_cycle;Max_cycle;Signal;HPM_P1;HPM_P2
2023/06/17 00:00:09;;;;;;;12.17;7.00;;;;;;;;;;5004541;28;20466;-47
2023/06/17 00:02:35;;;;;;;7.80;6.33;;;;;;;;;;5003179;28;20394;-48
2023/06/17 00:05:04;;;;;;;7.60;5.90;;;;;;;;;;5005489;28;20766;-48
2023/06/17 00:07:30;;;;;;;8.40;6.80;;;;;;;;;;5002535;28;20967;-49
2023/06/17 00:09:57;;;;;;;6.33;5.73;;;;;;;;;;4997377;28;20412;-49
2023/06/17 00:12:29;;;;;;;7.10;6.40;;;;;;;;;;5004297;28;20386;-49
2023/06/17 00:14:56;;;;;;;7.50;6.70;;;;;;;;;;4999562;28;20867;-48
2023/06/17 00:17:23;;;;;;;8.10;7.30;;;;;;;;;;5002967;28;20407;-47
2023/06/17 00:19:49;;;;;;;8.07;7.37;;;;;;;;;;5002176;28;20801;-49
2023/06/17 00:22:16;;;;;;;7.90;6.77;;;;;;;;;;5002448;28;20533;-47
2023/06/17 00:24:42;;;;;;;8.53;7.33;;;;;;;;;;5001848;28;20465;-48
2023/06/17 00:27:08;;;;;;;9.40;6.53;;;;;;;;;;5000892;28;20459;-49
2023/06/17 00:29:34;;;;;;;7.80;7.00;;;;;;;;;;5005958;28;20396;-49
2023/06/17 00:32:01;;;;;;;6.80;6.20;;;;;;;;;;5000587;28;20411;-48
2023/06/17 00:34:27;;;;;;;10.10;6.50;;;;;;;;;;5000434;28;20435;-50
2023/06/17 00:36:53;;;;;;;7.17;6.47;;;;;;;;;;5002003;28;20804;-50
2023/06/17 00:39:19;;;;;;;6.90;6.20;;;;;;;;;;5000578;28;20407;-49
2023/06/17 00:41:45;;;;;;;6.90;6.20;;;;;;;;;;5001508;28;20426;-47
2023/06/17 00:44:12;;;;;;;8.80;6.20;;;;;;;;;;5004562;28;20450;-48
2023/06/17 00:46:39;;;;;;;8.47;6.87;;;;;;;;;;5003817;28;20957;-49
2023/06/17 00:49:06;;;;;;;11.90;6.60;;;;;;;;;;4998881;28;20385;-52
2023/06/17 00:51:33;;;;;;;10.40;6.60;;;;;;;;;;4998115;28;20437;-48
2023/06/17 00:54:00;;;;;;;6.60;5.90;;;;;;;;;;5003197;28;20874;-48
2023/06/17 00:56:27;;;;;;;7.40;6.70;;;;;;;;;;5004092;28;20377;-49
2023/06/17 00:58:54;;;;;;;10.30;7.50;;;;;;;;;;5002156;28;20427;-48
2023/06/17 01:01:20;;;;;;;7.87;6.40;;;;;;;;;;5002384;28;20553;-48
2023/06/17 01:03:49;;;;;;;6.33;5.73;;;;;;;;;;5002688;28;20483;-48
2023/06/17 01:06:19;;;;;;;6.30;5.67;;;;;;;;;;4998234;28;20488;-48
2023/06/17 01:08:51;;;;;;;7.90;6.00;;;;;;;;;;5001920;28;20408;-49
2023/06/17 01:11:20;;;;;;;6.70;6.10;;;;;;;;;;5003678;28;20413;-49
2023/06/17 01:13:48;;;;;;;8.87;6.47;;;;;;;;;;4999237;28;20390;-52
2023/06/17 01:16:14;;;;;;;7.87;6.40;;;;;;;;;;4999842;28;20904;-49
2023/06/17 01:18:41;;;;;;;7.93;7.10;;;;;;;;;;5000425;28;20374;-48
2023/06/17 01:21:08;;;;;;;8.77;6.40;;;;;;;;;;5001121;28;20420;-50
2023/06/17 01:23:37;;;;;;;11.77;7.50;;;;;;;;;;5000146;28;20501;-48
2023/06/17 01:26:04;;;;;;;8.33;6.77;;;;;;;;;;5009906;28;20462;-49
2023/06/17 01:28:30;;;;;;;6.23;5.47;;;;;;;;;;5007961;28;20395;-48
2023/06/17 01:30:57;;;;;;;7.40;6.67;;;;;;;;;;5002263;28;20885;-48
2023/06/17 01:33:26;;;;;;;10.57;7.00;;;;;;;;;;5003102;28;20501;-48
2023/06/17 01:36:14;;;;;;;8.10;6.07;;;;;;;;;;5005528;28;20412;-49
2023/06/17 01:38:45;;;;;;;12.13;7.40;;;;;;;;;;5005950;28;20429;-48
2023/06/17 01:41:15;;;;;;;8.43;7.53;;;;;;;;;;5007275;28;20456;-47
2023/06/17 01:43:41;;;;;;;14.83;7.60;;;;;;;;;;5001165;28;20484;-48
2023/06/17 01:46:08;;;;;;;8.43;7.57;;;;;;;;;;5004588;28;20447;-48
2023/06/17 01:48:34;;;;;;;13.67;6.33;;;;;;;;;;5001563;28;20936;-48
2023/06/17 01:51:00;;;;;;;6.93;6.23;;;;;;;;;;5004143;28;20417;-49
2023/06/17 01:53:26;;;;;;;8.50;6.40;;;;;;;;;;5008397;28;20432;-48
2023/06/17 01:55:52;;;;;;;8.13;6.20;;;;;;;;;;5003533;28;20441;-48
2023/06/17 01:58:18;;;;;;;7.63;6.10;;;;;;;;;;5004949;28;20416;-48
2023/06/17 02:00:44;;;;;;;6.13;5.50;;;;;;;;;;5004133;28;20409;-48
2023/06/17 02:03:10;;;;;;;7.13;6.37;;;;;;;;;;5004398;28;20390;-49
2023/06/17 02:05:36;;;;;;;7.90;6.85;;;;;;;;;;5003416;28;20416;-49
2023/06/17 02:08:05;;;;;;;15.53;5.90;;;;;;;;;;5009949;28;20393;-50
2023/06/17 02:10:31;;;;;;;24.20;6.63;;;;;;;;;;5007055;28;20889;-48
2023/06/17 02:12:57;;;;;;;9.63;6.70;;;;;;;;;;5002123;28;20452;-49
2023/06/17 02:15:24;;;;;;;8.67;7.50;;;;;;;;;;5000448;28;20816;-47
2023/06/17 02:17:51;;;;;;;10.00;7.37;;;;;;;;;;5002322;28;20420;-49
2023/06/17 02:20:17;;;;;;;8.90;7.80;;;;;;;;;;5003303;28;20764;-49
2023/06/17 02:22:43;;;;;;;8.03;7.20;;;;;;;;;;5003960;28;20398;-48
2023/06/17 02:25:09;;;;;;;10.70;7.67;;;;;;;;;;5007081;28;20453;-48
2023/06/17 02:27:36;;;;;;;8.13;6.93;;;;;;;;;;5005812;28;20474;-49
2023/06/17 02:30:02;;;;;;;11.03;8.40;;;;;;;;;;4999764;28;20887;-49
2023/06/17 02:32:28;;;;;;;15.10;7.27;;;;;;;;;;4999725;28;20411;-48
2023/06/17 02:34:57;;;;;;;8.60;7.50;;;;;;;;;;5004615;28;20927;-48
2023/06/17 02:37:22;;;;;;;7.47;6.77;;;;;;;;;;5005684;28;20495;-48
2023/06/17 02:39:48;;;;;;;8.00;7.17;;;;;;;;;;5003803;28;20503;-49
2023/06/17 02:42:14;;;;;;;11.30;8.10;;;;;;;;;;5005104;28;20403;-50
2023/06/17 02:44:40;;;;;;;22.00;12.27;;;;;;;;;;5004264;28;20418;-49
2023/06/17 02:47:06;;;;;;;17.90;12.33;;;;;;;;;;4997176;28;20525;-49
2023/06/17 02:49:32;;;;;;;19.17;12.60;;;;;;;;;;5006060;28;20391;-48
2023/06/17 02:51:58;;;;;;;18.07;11.90;;;;;;;;;;5002912;28;20771;-48
2023/06/17 02:54:24;;;;;;;21.73;12.50;;;;;;;;;;5003174;28;20528;-49
2023/06/17 02:56:50;;;;;;;18.20;12.40;;;;;;;;;;5004091;28;20410;-47
2023/06/17 02:59:16;;;;;;;17.10;12.40;;;;;;;;;;5007888;28;20397;-48
2023/06/17 03:01:43;;;;;;;17.83;9.90;;;;;;;;;;5002545;28;20397;-49
2023/06/17 03:04:13;;;;;;;20.93;11.37;;;;;;;;;;5002510;28;20428;-49
2023/06/17 03:06:40;;;;;;;15.77;10.53;;;;;;;;;;5007314;28;20462;-48
2023/06/17 03:09:07;;;;;;;17.70;11.73;;;;;;;;;;4993484;28;20754;-49
2023/06/17 03:11:33;;;;;;;23.10;12.10;;;;;;;;;;5000353;28;20856;-48
2023/06/17 03:13:59;;;;;;;23.17;12.37;;;;;;;;;;5002408;28;20515;-49
2023/06/17 03:16:25;;;;;;;20.00;13.03;;;;;;;;;;5001087;28;20526;-48
2023/06/17 03:18:52;;;;;;;30.70;15.77;;;;;;;;;;5003833;28;20387;-51
2023/06/17 03:21:19;;;;;;;28.80;14.73;;;;;;;;;;5005167;28;20751;-47
2023/06/17 03:23:45;;;;;;;24.50;12.20;;;;;;;;;;5005373;28;21046;-48
2023/06/17 03:26:11;;;;;;;11.27;7.93;;;;;;;;;;5000093;28;20952;-48
2023/06/17 03:28:37;;;;;;;10.40;7.87;;;;;;;;;;4997794;28;20474;-48
2023/06/17 03:31:03;;;;;;;8.30;6.93;;;;;;;;;;5004800;28;20494;-47
2023/06/17 03:33:29;;;;;;;9.40;7.10;;;;;;;;;;5003681;28;20404;-47
2023/06/17 03:35:57;;;;;;;10.33;7.37;;;;;;;;;;5003967;28;20928;-48
2023/06/17 03:38:22;;;;;;;16.20;7.80;;;;;;;;;;5002829;28;20391;-47
2023/06/17 03:40:48;;;;;;;8.50;7.10;;;;;;;;;;5003364;28;20419;-49
2023/06/17 03:43:15;;;;;;;7.10;6.30;;;;;;;;;;4998620;28;20506;-48
2023/06/17 03:45:41;;;;;;;12.00;7.17;;;;;;;;;;5000961;28;20451;-47
2023/06/17 03:48:07;;;;;;;9.57;7.40;;;;;;;;;;5004343;28;20418;-49
2023/06/17 03:50:33;;;;;;;8.63;7.70;;;;;;;;;;5000986;28;20415;-49
2023/06/17 03:52:59;;;;;;;11.93;7.63;;;;;;;;;;5003480;28;20968;-47
2023/06/17 03:55:25;;;;;;;10.07;7.50;;;;;;;;;;5001459;28;20489;-48
2023/06/17 03:57:52;;;;;;;8.60;7.60;;;;;;;;;;4989110;28;20523;-48
2023/06/17 04:00:19;;;;;;;11.27;8.50;;;;;;;;;;4998359;28;20420;-48
2023/06/17 04:02:47;;;;;;;11.33;7.83;;;;;;;;;;5003818;28;20428;-47
2023/06/17 04:05:13;;;;;;;13.33;8.60;;;;;;;;;;5001320;28;20536;-47
2023/06/17 04:07:40;;;;;;;14.27;10.03;;;;;;;;;;4998208;28;20491;-48
2023/06/17 04:10:08;;;;;;;14.90;9.50;;;;;;;;;;4993253;28;20393;-47
2023/06/17 04:12:36;;;;;;;17.30;10.27;;;;;;;;;;5001125;28;20379;-48
2023/06/17 04:15:02;;;;;;;12.30;9.50;;;;;;;;;;5004161;28;20493;-47
2023/06/17 04:17:28;;;;;;;18.17;9.50;;;;;;;;;;5000038;28;20449;-48
2023/06/17 04:19:56;;;;;;;12.80;8.77;;;;;;;;;;5004438;28;20851;-47
2023/06/17 04:22:22;;;;;;;11.63;9.00;;;;;;;;;;5000860;28;20472;-47
2023/06/17 04:24:48;;;;;;;11.17;8.60;;;;;;;;;;4996379;28;20457;-48
2023/06/17 04:27:14;;;;;;;10.60;7.93;;;;;;;;;;5004070;28;20442;-48
2023/06/17 04:29:40;;;;;;;9.33;7.00;;;;;;;;;;5001318;28;20397;-48
2023/06/17 04:32:10;;;;;;;12.20;7.63;;;;;;;;;;5004244;28;20407;-49
2023/06/17 04:34:38;;;;;;;12.37;9.40;;;;;;;;;;4996989;28;20479;-49
2023/06/17 04:37:04;;;;;;;13.77;7.90;;;;;;;;;;5002799;28;20492;-47
2023/06/17 04:39:34;;;;;;;12.47;6.87;;;;;;;;;;4999509;28;20499;-47
2023/06/17 04:42:00;;;;;;;10.50;7.70;;;;;;;;;;5001163;28;20413;-47
2023/06/17 04:44:26;;;;;;;9.23;7.77;;;;;;;;;;4997973;28;20449;-48
2023/06/17 04:46:53;;;;;;;13.87;7.73;;;;;;;;;;5002423;28;20474;-48
2023/06/17 04:49:19;;;;;;;11.10;7.10;;;;;;;;;;5000664;28;20388;-47
2023/06/17 04:51:48;;;;;;;7.67;6.87;;;;;;;;;;5008387;28;20454;-48
2023/06/17 04:54:14;;;;;;;8.00;6.93;;;;;;;;;;5000345;28;20466;-48
2023/06/17 04:56:40;;;;;;;7.47;6.67;;;;;;;;;;5000427;28;20515;-48
2023/06/17 04:59:06;;;;;;;8.10;6.47;;;;;;;;;;5005422;28;20438;-50
2023/06/17 05:01:32;;;;;;;15.27;7.43;;;;;;;;;;5003343;28;20455;-47
2023/06/17 05:03:58;;;;;;;6.93;6.23;;;;;;;;;;4997867;28;20422;-47
2023/06/17 05:06:24;;;;;;;7.80;6.63;;;;;;;;;;4996403;28;20462;-47
2023/06/17 05:08:50;;;;;;;7.80;6.70;;;;;;;;;;5000847;28;20420;-48
2023/06/17 05:11:16;;;;;;;8.20;7.40;;;;;;;;;;5003628;28;20897;-48
2023/06/17 05:13:42;;;;;;;9.17;7.10;;;;;;;;;;5001206;28;20387;-49
2023/06/17 05:16:09;;;;;;;8.07;6.03;;;;;;;;;;5003617;28;20757;-50
2023/06/17 05:18:35;;;;;;;7.40;6.67;;;;;;;;;;5002050;28;20507;-49
2023/06/17 05:21:03;;;;;;;7.40;6.70;;;;;;;;;;4995770;28;20390;-48
2023/06/17 05:23:30;;;;;;;10.80;7.20;;;;;;;;;;5003419;28;20433;-47
2023/06/17 05:25:56;;;;;;;11.23;7.27;;;;;;;;;;5000974;28;20396;-48
2023/06/17 05:28:22;;;;;;;7.97;6.40;;;;;;;;;;5001985;28;20949;-48
2023/06/17 05:30:47;;;;;;;7.33;6.63;;;;;;;;;;5001828;28;20964;-50
2023/06/17 05:33:13;;;;;;;6.33;5.73;;;;;;;;;;5001215;28;20389;-49
2023/06/17 05:35:39;;;;;;;7.67;6.40;;;;;;;;;;5000670;28;20408;-50
2023/06/17 05:38:05;;;;;;;7.20;6.23;;;;;;;;;;4994921;28;20438;-50
2023/06/17 05:40:31;;;;;;;9.73;5.90;;;;;;;;;;5003561;28;20803;-50
2023/06/17 05:42:57;;;;;;;7.70;6.90;;;;;;;;;;4999432;28;20900;-49
2023/06/17 05:45:23;;;;;;;8.67;6.50;;;;;;;;;;4999842;28;20814;-48
2023/06/17 05:47:50;;;;;;;6.60;5.77;;;;;;;;;;5000680;28;20438;-50
2023/06/17 05:50:16;;;;;;;7.00;6.23;;;;;;;;;;4999810;28;20418;-50
2023/06/17 05:52:44;;;;;;;7.97;6.53;;;;;;;;;;5000908;28;20423;-51
2023/06/17 05:55:10;;;;;;;8.40;6.60;;;;;;;;;;5004712;28;20400;-48
2023/06/17 05:57:36;;;;;;;7.07;6.37;;;;;;;;;;5003519;28;20500;-51
2023/06/17 06:00:03;;;;;;;7.87;6.93;;;;;;;;;;4997191;28;20423;-51
2023/06/17 06:02:29;;;;;;;9.83;6.20;;;;;;;;;;4997434;28;20399;-49
2023/06/17 06:04:55;;;;;;;7.23;6.53;;;;;;;;;;5002070;28;20427;-50
2023/06/17 06:07:22;;;;;;;8.23;6.70;;;;;;;;;;4999790;28;20469;-49
2023/06/17 06:09:48;;;;;;;10.37;7.20;;;;;;;;;;4998805;28;20438;-50
2023/06/17 06:12:14;;;;;;;9.07;7.10;;;;;;;;;;5006256;28;20382;-51
2023/06/17 06:14:40;;;;;;;8.83;7.23;;;;;;;;;;5005868;28;20437;-50
2023/06/17 06:17:06;;;;;;;7.70;6.90;;;;;;;;;;5000347;28;20877;-48
2023/06/17 06:19:32;;;;;;;11.33;7.20;;;;;;;;;;5006533;28;20958;-49
2023/06/17 06:21:59;;;;;;;8.97;7.80;;;;;;;;;;5004420;28;20416;-50
2023/06/17 06:24:25;;;;;;;7.93;7.13;;;;;;;;;;5004716;28;20452;-50
2023/06/17 06:26:50;;;;;;;10.40;7.30;;;;;;;;;;5004823;28;20470;-49
2023/06/17 06:29:17;;;;;;;10.53;7.47;;;;;;;;;;5003951;28;20388;-49
2023/06/17 06:31:43;;;;;;;9.00;7.63;;;;;;;;;;5004122;28;20449;-50
2023/06/17 06:34:10;;;;;;;8.60;7.70;;;;;;;;;;5002886;28;20432;-50
2023/06/17 06:36:35;;;;;;;12.00;7.90;;;;;;;;;;5004678;28;21252;-50
2023/06/17 06:39:01;;;;;;;11.10;8.47;;;;;;;;;;5005874;28;20528;-50
2023/06/17 06:41:27;;;;;;;10.17;7.70;;;;;;;;;;5002385;28;20448;-50
2023/06/17 06:43:53;;;;;;;7.13;6.07;;;;;;;;;;5003789;28;20491;-50
2023/06/17 06:46:19;;;;;;;8.77;6.80;;;;;;;;;;5002880;28;20532;-50
2023/06/17 06:48:45;;;;;;;8.97;6.60;;;;;;;;;;4987205;28;20464;-51
2023/06/17 06:51:11;;;;;;;8.53;7.53;;;;;;;;;;5002560;28;20390;-51
2023/06/17 06:53:37;;;;;;;9.70;6.90;;;;;;;;;;5007204;28;20469;-51
2023/06/17 06:56:03;;;;;;;10.33;7.67;;;;;;;;;;4999921;28;20388;-50
2023/06/17 06:58:30;;;;;;;8.50;7.60;;;;;;;;;;5005821;28;20795;-51
2023/06/17 07:00:56;;;;;;;9.53;7.90;;;;;;;;;;5005019;28;20410;-49
2023/06/17 07:03:22;;;;;;;10.47;8.10;;;;;;;;;;5005372;28;20416;-51
2023/06/17 07:05:49;;;;;;;11.10;8.73;;;;;;;;;;5003618;28;20430;-51
2023/06/17 07:08:15;;;;;;;8.40;7.47;;;;;;;;;;5000932;28;20953;-49
2023/06/17 07:10:41;;;;;;;15.30;8.37;;;;;;;;;;5005224;28;20421;-51
2023/06/17 07:13:07;;;;;;;8.53;7.63;;;;;;;;;;4998975;28;20767;-50
2023/06/17 07:15:33;;;;;;;10.90;8.77;;;;;;;;;;5000557;28;20636;-50
2023/06/17 07:17:59;;;;;;;9.60;6.87;;;;;;;;;;5004756;28;20882;-51
2023/06/17 07:20:25;;;;;;;8.27;7.37;;;;;;;;;;5003068;28;20411;-50
2023/06/17 07:22:51;;;;;;;9.40;7.17;;;;;;;;;;5002910;28;20425;-50
2023/06/17 07:25:17;;;;;;;8.47;7.57;;;;;;;;;;5002376;28;20535;-50
2023/06/17 07:27:43;;;;;;;15.17;7.83;;;;;;;;;;5002731;28;20515;-52
2023/06/17 07:30:09;;;;;;;9.93;6.93;;;;;;;;;;5001894;28;20500;-51
2023/06/17 07:32:35;;;;;;;8.07;6.80;;;;;;;;;;5006899;28;20417;-51
2023/06/17 07:35:01;;;;;;;7.87;7.10;;;;;;;;;;5001024;28;20512;-50
2023/06/17 07:37:27;;;;;;;9.10;7.67;;;;;;;;;;4997738;28;20437;-51
2023/06/17 07:39:53;;;;;;;7.43;6.77;;;;;;;;;;5006112;28;20505;-52
2023/06/17 07:42:19;;;;;;;9.93;7.30;;;;;;;;;;5001691;28;20922;-51
2023/06/17 07:44:45;;;;;;;8.30;6.60;;;;;;;;;;5002379;28;20483;-51
2023/06/17 07:47:11;;;;;;;10.73;6.70;;;;;;;;;;5006348;28;20470;-50
2023/06/17 07:49:38;;;;;;;7.17;6.47;;;;;;;;;;5005940;28;20464;-51
2023/06/17 07:52:04;;;;;;;11.93;7.40;;;;;;;;;;4999688;28;20842;-52
2023/06/17 07:54:30;;;;;;;10.30;7.27;;;;;;;;;;4998827;28;20495;-49
2023/06/17 07:56:56;;;;;;;10.70;6.80;;;;;;;;;;5002287;28;20420;-50
2023/06/17 07:59:22;;;;;;;6.20;5.63;;;;;;;;;;5006419;28;20470;-51
2023/06/17 08:01:48;;;;;;;7.10;6.40;;;;;;;;;;5001918;28;20412;-51
2023/06/17 08:04:16;;;;;;;7.77;6.70;;;;;;;;;;5003219;28;21025;-51
2023/06/17 08:06:42;;;;;;;7.20;6.20;;;;;;;;;;5002226;28;20466;-50
2023/06/17 08:09:08;;;;;;;6.60;5.90;;;;;;;;;;4997734;28;20415;-50
2023/06/17 08:11:34;;;;;;;6.73;6.03;;;;;;;;;;5004704;28;20914;-51
2023/06/17 08:14:01;;;;;;;7.57;6.10;;;;;;;;;;5002351;28;20435;-51
2023/06/17 08:16:27;;;;;;;8.53;6.37;;;;;;;;;;5002259;28;20442;-51
2023/06/17 08:18:53;;;;;;;6.97;5.97;;;;;;;;;;5003066;28;20423;-51
2023/06/17 08:21:20;;;;;;;5.80;5.20;;;;;;;;;;5001579;28;20425;-51
2023/06/17 08:23:46;;;;;;;5.97;4.83;;;;;;;;;;5002124;28;20879;-51
2023/06/17 08:26:12;;;;;;;6.33;5.73;;;;;;;;;;5001351;28;21026;-50
2023/06/17 08:28:38;;;;;;;6.77;5.03;;;;;;;;;;5006943;28;20464;-50
2023/06/17 08:31:04;;;;;;;5.37;4.87;;;;;;;;;;5000265;28;20430;-50
2023/06/17 08:33:30;;;;;;;5.43;4.90;;;;;;;;;;5000181;28;20408;-51
2023/06/17 08:35:56;;;;;;;5.90;5.40;;;;;;;;;;5005152;28;20450;-51
2023/06/17 08:38:22;;;;;;;5.70;5.07;;;;;;;;;;5000956;28;20887;-50
2023/06/17 08:40:48;;;;;;;8.40;5.53;;;;;;;;;;5002248;28;20907;-51
2023/06/17 08:43:17;;;;;;;6.00;5.40;;;;;;;;;;5005557;28;20984;-50
2023/06/17 08:45:45;;;;;;;5.40;4.87;;;;;;;;;;5005115;28;20439;-51
2023/06/17 08:48:11;;;;;;;5.60;5.07;;;;;;;;;;4999723;28;20473;-50
2023/06/17 08:50:37;;;;;;;5.97;5.50;;;;;;;;;;4997274;28;20408;-50
2023/06/17 08:53:03;;;;;;;4.90;4.40;;;;;;;;;;5004107;28;20490;-52
2023/06/17 08:55:29;;;;;;;5.30;4.80;;;;;;;;;;5003150;28;20435;-52
2023/06/17 08:57:55;;;;;;;7.17;5.13;;;;;;;;;;5002586;28;20423;-51
2023/06/17 09:00:22;;;;;;;6.53;4.90;;;;;;;;;;5002465;28;20420;-51
2023/06/17 09:02:48;;;;;;;8.93;5.07;;;;;;;;;;5001135;28;20422;-51
2023/06/17 09:05:14;;;;;;;5.03;4.20;;;;;;;;;;4991226;28;20813;-50
2023/06/17 09:07:40;;;;;;;6.97;5.10;;;;;;;;;;4991404;28;20650;-51
2023/06/17 09:10:11;;;;;;;6.73;4.93;;;;;;;;;;4992088;28;20436;-52
2023/06/17 09:12:56;;;;;;;5.40;4.93;;;;;;;;;;4992141;28;20419;-51
2023/06/17 09:15:22;;;;;;;7.97;4.83;;;;;;;;;;4990804;28;20436;-50
2023/06/17 09:17:50;;;;;;;6.27;4.77;;;;;;;;;;4992209;28;20481;-50
2023/06/17 09:20:16;;;;;;;4.53;4.13;;;;;;;;;;4992050;28;20497;-51
2023/06/17 09:22:43;;;;;;;5.30;4.73;;;;;;;;;;4992162;28;20423;-52
2023/06/17 09:25:14;;;;;;;5.50;4.90;;;;;;;;;;4993065;28;20460;-51
2023/06/17 09:27:46;;;;;;;5.57;4.93;;;;;;;;;;5000073;28;20542;-50
2023/06/17 09:30:14;;;;;;;7.60;4.90;;;;;;;;;;4991900;28;20412;-52
2023/06/17 09:32:40;;;;;;;6.43;5.10;;;;;;;;;;4992088;28;20420;-50
2023/06/17 09:35:16;;;;;;;5.97;5.07;;;;;;;;;;4990100;28;20472;-51
2023/06/17 09:37:43;;;;;;;4.70;4.10;;;;;;;;;;4991968;28;20499;-51
2023/06/17 09:40:10;;;;;;;5.07;4.50;;;;;;;;;;4991930;28;20400;-50
2023/06/17 09:42:36;;;;;;;8.47;4.30;;;;;;;;;;4992070;28;20916;-51
2023/06/17 09:45:06;;;;;;;6.80;4.10;;;;;;;;;;4991958;28;20938;-51
2023/06/17 09:47:38;;;;;;;5.30;4.20;;;;;;;;;;4995652;28;21002;-52
2023/06/17 09:50:14;;;;;;;5.23;4.73;;;;;;;;;;4995465;28;20418;-52
2023/06/17 09:52:40;;;;;;;4.80;4.40;;;;;;;;;;4985940;28;20503;-51
2023/06/17 09:55:06;;;;;;;10.20;4.40;;;;;;;;;;4983068;28;20436;-51
2023/06/17 09:57:34;;;;;;;5.30;4.30;;;;;;;;;;4995914;28;20416;-51
2023/06/17 10:00:14;;;;;;;7.70;4.00;;;;;;;;;;4994188;28;20466;-51
2023/06/17 10:02:40;;;;;;;4.40;4.10;;;;;;;;;;4994856;28;20431;-50
2023/06/17 10:05:10;;;;;;;4.80;4.30;;;;;;;;;;4995471;28;20442;-51
2023/06/17 10:07:37;;;;;;;4.50;4.10;;;;;;;;;;4995455;28;20464;-50
2023/06/17 10:10:04;;;;;;;4.80;3.80;;;;;;;;;;4995325;28;20444;-51
2023/06/17 10:12:31;;;;;;;4.10;3.70;;;;;;;;;;4995432;28;20771;-51
2023/06/17 10:14:59;;;;;;;3.80;3.50;;;;;;;;;;4995008;28;20462;-50
2023/06/17 10:17:25;;;;;;;4.20;3.90;;;;;;;;;;4995520;28;20749;-50
2023/06/17 10:19:52;;;;;;;3.90;3.60;;;;;;;;;;4995138;28;20435;-50
2023/06/17 10:22:19;;;;;;;7.10;4.30;;;;;;;;;;4995261;28;20814;-50
2023/06/17 10:24:46;;;;;;;4.20;3.80;;;;;;;;;;4994979;28;20447;-50
2023/06/17 10:27:12;;;;;;;3.87;3.53;;;;;;;;;;4995060;28;20495;-51
2023/06/17 10:29:42;;;;;;;4.47;4.07;;;;;;;;;;4994630;28;20518;-50
2023/06/17 10:32:19;;;;;;;5.43;4.60;;;;;;;;;;4993270;28;20486;-50
2023/06/17 10:35:04;;;;;;;4.20;3.80;;;;;;;;;;4994812;28;20526;-50
2023/06/17 10:37:30;;;;;;;4.50;4.00;;;;;;;;;;4994820;28;20471;-51
2023/06/17 10:40:16;;;;;;;4.20;3.90;;;;;;;;;;4994555;28;20448;-51
2023/06/17 10:42:52;;;;;;;4.80;4.40;;;;;;;;;;5003186;28;20812;-51
2023/06/17 10:45:18;;;;;;;4.93;4.47;;;;;;;;;;5000544;28;20435;-51
2023/06/17 10:47:44;;;;;;;4.17;3.77;;;;;;;;;;5003325;28;20456;-51
2023/06/17 10:50:12;;;;;;;5.40;4.07;;;;;;;;;;5004906;28;20414;-51
2023/06/17 10:52:39;;;;;;;5.00;4.23;;;;;;;;;;5002330;28;20443;-51
2023/06/17 10:55:05;;;;;;;7.40;4.03;;;;;;;;;;5002566;28;20439;-51
2023/06/17 10:57:35;;;;;;;5.00;4.10;;;;;;;;;;5003064;28;20419;-51
2023/06/17 11:00:08;;;;;;;3.80;3.50;;;;;;;;;;5005645;28;20414;-51
2023/06/17 11:02:34;;;;;;;4.53;4.13;;;;;;;;;;4998454;28;20928;-51
2023/06/17 11:05:01;;;;;;;4.50;4.10;;;;;;;;;;5004977;28;20530;-51
2023/06/17 11:07:27;;;;;;;5.50;3.90;;;;;;;;;;5002681;28;20468;-51
2023/06/17 11:09:53;;;;;;;7.20;3.97;;;;;;;;;;5004127;28;20404;-52
2023/06/17 11:12:19;;;;;;;4.07;3.60;;;;;;;;;;5002508;28;20426;-50
2023/06/17 11:14:46;;;;;;;4.10;3.80;;;;;;;;;;4994154;28;20490;-51
2023/06/17 11:17:12;;;;;;;4.00;3.70;;;;;;;;;;4994271;28;20497;-51
2023/06/17 11:19:37;;;;;;;4.30;4.00;;;;;;;;;;4993630;28;20932;-51
2023/06/17 11:22:04;;;;;;;5.97;3.80;;;;;;;;;;4994214;28;20896;-51
2023/06/17 11:24:33;;;;;;;3.73;3.43;;;;;;;;;;4993842;28;20467;-51
2023/06/17 11:27:00;;;;;;;4.20;3.80;;;;;;;;;;4993906;28;20742;-51
2023/06/17 11:29:26;;;;;;;5.10;4.37;;;;;;;;;;4993866;28;20499;-51
2023/06/17 11:31:53;;;;;;;4.33;3.93;;;;;;;;;;4993429;28;20920;-50
2023/06/17 11:34:19;;;;;;;5.53;3.30;;;;;;;;;;4992839;28;20483;-51
2023/06/17 11:36:51;;;;;;;4.10;3.80;;;;;;;;;;4993731;28;20420;-51
2023/06/17 11:39:18;;;;;;;3.90;3.57;;;;;;;;;;4993631;28;20418;-51
2023/06/17 11:41:45;;;;;;;3.40;3.20;;;;;;;;;;4993682;28;20416;-52
2023/06/17 11:44:11;;;;;;;4.27;3.90;;;;;;;;;;4993623;28;20450;-51
2023/06/17 11:46:37;;;;;;;4.30;3.90;;;;;;;;;;4993400;28;20451;-51
2023/06/17 11:49:06;;;;;;;3.40;3.20;;;;;;;;;;4986805;28;20427;-51
2023/06/17 11:51:32;;;;;;;6.67;3.97;;;;;;;;;;4993467;28;20419;-51
2023/06/17 11:54:03;;;;;;;4.50;3.70;;;;;;;;;;4994091;28;20876;-51
2023/06/17 11:56:32;;;;;;;4.10;3.80;;;;;;;;;;4993137;28;20760;-52
2023/06/17 11:58:58;;;;;;;4.40;3.40;;;;;;;;;;4997498;28;20408;-51
2023/06/17 12:01:25;;;;;;;4.07;3.77;;;;;;;;;;4991203;28;20454;-51
2023/06/17 12:03:51;;;;;;;3.93;3.50;;;;;;;;;;4993437;28;20845;-51
2023/06/17 12:06:18;;;;;;;3.57;3.27;;;;;;;;;;4990236;28;20475;-51
2023/06/17 12:08:44;;;;;;;3.77;3.43;;;;;;;;;;4973189;28;20411;-51
2023/06/17 12:11:25;;;;;;;4.27;3.50;;;;;;;;;;4993139;28;20458;-51
2023/06/17 12:13:54;;;;;;;3.90;3.47;;;;;;;;;;4993150;28;20547;-51
2023/06/17 12:16:24;;;;;;;6.53;4.33;;;;;;;;;;4998634;28;20419;-51
2023/06/17 12:18:51;;;;;;;4.23;3.30;;;;;;;;;;5003034;28;20419;-51
2023/06/17 12:21:21;;;;;;;6.20;3.40;;;;;;;;;;4999600;28;20485;-51
2023/06/17 12:23:53;;;;;;;5.33;3.50;;;;;;;;;;4996634;28;20442;-51
2023/06/17 12:26:19;;;;;;;5.67;3.50;;;;;;;;;;5004298;28;20461;-51
2023/06/17 12:28:45;;;;;;;4.47;4.00;;;;;;;;;;5001678;28;20416;-51
2023/06/17 12:31:11;;;;;;;4.07;3.77;;;;;;;;;;4999232;28;20428;-51
2023/06/17 12:33:38;;;;;;;6.23;3.70;;;;;;;;;;4992837;28;20884;-51
2023/06/17 12:36:05;;;;;;;3.40;3.20;;;;;;;;;;4992877;28;20773;-52
2023/06/17 12:38:31;;;;;;;4.87;4.27;;;;;;;;;;4992773;28;20416;-51
2023/06/17 12:40:59;;;;;;;3.57;3.37;;;;;;;;;;4992613;28;20419;-51
2023/06/17 12:43:25;;;;;;;3.83;3.53;;;;;;;;;;4992781;28;20554;-51
2023/06/17 12:45:51;;;;;;;6.37;3.73;;;;;;;;;;4992673;28;20439;-51
2023/06/17 12:48:17;;;;;;;6.83;3.50;;;;;;;;;;4992540;28;20479;-52
2023/06/17 12:50:44;;;;;;;8.57;4.43;;;;;;;;;;4992449;28;20447;-51
2023/06/17 12:53:11;;;;;;;8.30;4.07;;;;;;;;;;4973214;28;20409;-51
2023/06/17 12:55:37;;;;;;;3.93;3.53;;;;;;;;;;4989873;28;20439;-51
2023/06/17 12:58:04;;;;;;;3.80;3.50;;;;;;;;;;5000380;28;20775;-52
2023/06/17 13:00:30;;;;;;;3.73;3.43;;;;;;;;;;4990899;28;20445;-51
2023/06/17 13:02:56;;;;;;;5.07;4.00;;;;;;;;;;4992280;28;20424;-51
2023/06/17 13:05:22;;;;;;;3.80;3.50;;;;;;;;;;4992319;28;20801;-51
2023/06/17 13:07:48;;;;;;;9.80;7.50;;;;;;;;;;4992080;28;20459;-51
2023/06/17 13:10:14;;;;;;;4.30;3.90;;;;;;;;;;4988252;28;20920;-51
2023/06/17 13:12:40;;;;;;;4.07;3.77;;;;;;;;;;4992176;28;20408;-51
2023/06/17 13:15:06;;;;;;;3.93;3.63;;;;;;;;;;4992036;28;20443;-52
2023/06/17 13:17:32;;;;;;;3.80;3.50;;;;;;;;;;4992292;28;20419;-51
2023/06/17 13:19:58;;;;;;;4.00;3.60;;;;;;;;;;4981021;28;20499;-51
2023/06/17 13:22:26;;;;;;;7.17;4.10;;;;;;;;;;4982140;28;20447;-52
2023/06/17 13:24:53;;;;;;;5.30;3.83;;;;;;;;;;4994684;28;20216;-52
2023/06/17 13:27:19;;;;;;;4.20;3.80;;;;;;;;;;4995215;28;20461;-52
2023/06/17 13:29:46;;;;;;;4.27;3.97;;;;;;;;;;4993893;28;20415;-51
2023/06/17 13:32:11;;;;;;;5.37;4.00;;;;;;;;;;4996287;28;20523;-51
2023/06/17 13:34:38;;;;;;;4.20;4.00;;;;;;;;;;4996041;28;20619;-52
2023/06/17 13:37:04;;;;;;;9.17;4.00;;;;;;;;;;4996172;28;20415;-51
2023/06/17 13:39:33;;;;;;;4.23;3.93;;;;;;;;;;4995735;28;20421;-51
2023/06/17 13:42:03;;;;;;;5.53;4.20;;;;;;;;;;4995924;28;20434;-52
2023/06/17 13:44:28;;;;;;;4.27;3.87;;;;;;;;;;4995892;28;20919;-52
2023/06/17 13:46:56;;;;;;;4.77;4.37;;;;;;;;;;4995866;28;20470;-52
2023/06/17 13:49:21;;;;;;;7.40;4.80;;;;;;;;;;4995937;28;20160;-51
2023/06/17 13:51:48;;;;;;;4.40;4.10;;;;;;;;;;4995860;28;20412;-52
2023/06/17 13:54:18;;;;;;;4.37;4.00;;;;;;;;;;4995804;28;20510;-51
2023/06/17 13:56:46;;;;;;;4.33;3.93;;;;;;;;;;4994697;28;20416;-51
2023/06/17 13:59:12;;;;;;;6.07;3.83;;;;;;;;;;5002571;28;20431;-51
2023/06/17 14:01:39;;;;;;;4.43;4.03;;;;;;;;;;4995730;28;20455;-52
2023/06/17 14:04:05;;;;;;;4.63;4.23;;;;;;;;;;4995596;28;20839;-52
2023/06/17 14:06:31;;;;;;;6.67;4.10;;;;;;;;;;4995360;28;20834;-52
2023/06/17 14:08:58;;;;;;;4.40;4.10;;;;;;;;;;4995315;28;20892;-52
2023/06/17 14:11:25;;;;;;;6.17;4.40;;;;;;;;;;4994023;28;20420;-52
2023/06/17 14:13:52;;;;;;;4.20;3.90;;;;;;;;;;4995426;28;20498;-51
2023/06/17 14:16:18;;;;;;;4.10;3.60;;;;;;;;;;4995358;28;20514;-52
2023/06/17 14:18:44;;;;;;;5.77;4.37;;;;;;;;;;4995315;28;20420;-52
2023/06/17 14:21:23;;;;;;;4.57;4.17;;;;;;;;;;4995041;28;20415;-52
2023/06/17 14:23:57;;;;;;;4.20;3.80;;;;;;;;;;4995063;28;20192;-51
2023/06/17 14:26:23;;;;;;;4.80;4.40;;;;;;;;;;4991714;28;20480;-52
2023/06/17 14:28:49;;;;;;;5.43;4.20;;;;;;;;;;4976177;28;20409;-51
2023/06/17 14:31:15;;;;;;;5.03;4.00;;;;;;;;;;4993591;28;20809;-51
2023/06/17 14:33:41;;;;;;;5.40;4.90;;;;;;;;;;4994916;28;20418;-52
2023/06/17 14:36:07;;;;;;;4.40;4.03;;;;;;;;;;4994957;28;20412;-51